sensor_id;sensor_type;location;lat;lon;timestamp;temperature;humidity
70366;DHT22;57787;48.216;12.396;2023-06-19T00:01:08;16.70;67.10
70366;DHT22;57787;48.216;12.396;2023-06-19T00:03:34;16.60;67.20
70366;DHT22;57787;48.216;12.396;2023-06-19T00:06:01;16.50;67.90
70366;DHT22;57787;48.216;12.396;2023-06-19T00:08:28;16.50;67.20
70366;DHT22;57787;48.216;12.396;2023-06-19T00:10:55;16.50;67.20
70366;DHT22;57787;48.216;12.396;2023-06-19T00:13:22;16.40;67.90
70366;DHT22;57787;48.216;12.396;2023-06-19T00:15:49;16.30;68.60
70366;DHT22;57787;48.216;12.396;2023-06-19T00:18:16;16.30;67.30
70366;DHT22;57787;48.216;12.396;2023-06-19T00:20:46;16.30;67.30
70366;DHT22;57787;48.216;12.396;2023-06-19T00:23:13;16.30;67.10
70366;DHT22;57787;48.216;12.396;2023-06-19T00:25:41;16.20;67.90
70366;DHT22;57787;48.216;12.396;2023-06-19T00:28:09;16.20;68.90
70366;DHT22;57787;48.216;12.396;2023-06-19T00:30:42;16.10;67.80
70366;DHT22;57787;48.216;12.396;2023-06-19T00:33:09;16.10;68.30
70366;DHT22;57787;48.216;12.396;2023-06-19T00:35:36;16.10;68.70
70366;DHT22;57787;48.216;12.396;2023-06-19T00:38:04;16.10;68.20
70366;DHT22;57787;48.216;12.396;2023-06-19T00:40:32;16.00;68.50
70366;DHT22;57787;48.216;12.396;2023-06-19T00:42:59;16.00;68.50
70366;DHT22;57787;48.216;12.396;2023-06-19T00:45:26;16.00;68.50
70366;DHT22;57787;48.216;12.396;2023-06-19T00:47:53;15.90;68.60
70366;DHT22;57787;48.216;12.396;2023-06-19T00:50:22;15.90;68.80
70366;DHT22;57787;48.216;12.396;2023-06-19T00:52:50;15.90;69.70
70366;DHT22;57787;48.216;12.396;2023-06-19T00:55:17;15.90;69.10
70366;DHT22;57787;48.216;12.396;2023-06-19T00:57:44;15.80;69.40
70366;DHT22;57787;48.216;12.396;2023-06-19T01:00:15;15.80;68.40
70366;DHT22;57787;48.216;12.396;2023-06-19T01:02:42;15.80;69.00
70366;DHT22;57787;48.216;12.396;2023-06-19T01:05:10;15.70;69.60
70366;DHT22;57787;48.216;12.396;2023-06-19T01:10:07;15.70;69.70
70366;DHT22;57787;48.216;12.396;2023-06-19T01:12:37;15.60;69.40
70366;DHT22;57787;48.216;12.396;2023-06-19T01:15:05;15.60;70.60
70366;DHT22;57787;48.216;12.396;2023-06-19T01:17:35;15.60;70.30
70366;DHT22;57787;48.216;12.396;2023-06-19T01:20:02;15.60;69.80
70366;DHT22;57787;48.216;12.396;2023-06-19T01:22:36;15.60;70.00
70366;DHT22;57787;48.216;12.396;2023-06-19T01:25:06;15.50;72.00
70366;DHT22;57787;48.216;12.396;2023-06-19T01:27:34;15.50;72.10
70366;DHT22;57787;48.216;12.396;2023-06-19T01:30:01;15.60;71.30
70366;DHT22;57787;48.216;12.396;2023-06-19T01:32:44;15.60;71.00
70366;DHT22;57787;48.216;12.396;2023-06-19T01:35:15;15.60;70.40
70366;DHT22;57787;48.216;12.396;2023-06-19T01:37:44;15.70;71.00
70366;DHT22;57787;48.216;12.396;2023-06-19T01:40:11;15.70;71.60
70366;DHT22;57787;48.216;12.396;2023-06-19T01:42:40;15.70;71.50
70366;DHT22;57787;48.216;12.396;2023-06-19T01:45:07;15.70;71.20
70366;DHT22;57787;48.216;12.396;2023-06-19T01:47:34;15.80;71.80
70366;DHT22;57787;48.216;12.396;2023-06-19T01:50:01;15.80;72.20
70366;DHT22;57787;48.216;12.396;2023-06-19T01:52:28;15.80;71.60
70366;DHT22;57787;48.216;12.396;2023-06-19T01:54:56;15.90;71.60
70366;DHT22;57787;48.216;12.396;2023-06-19T01:57:23;15.90;70.90
70366;DHT22;57787;48.216;12.396;2023-06-19T01:59:52;16.00;71.00
70366;DHT22;57787;48.216;12.396;2023-06-19T02:02:21;16.00;71.60
70366;DHT22;57787;48.216;12.396;2023-06-19T02:04:47;16.10;72.30
70366;DHT22;57787;48.216;12.396;2023-06-19T02:07:14;16.20;72.30
70366;DHT22;57787;48.216;12.396;2023-06-19T02:09:41;16.20;71.70
70366;DHT22;57787;48.216;12.396;2023-06-19T02:12:08;16.20;71.40
70366;DHT22;57787;48.216;12.396;2023-06-19T02:14:35;16.30;71.30
70366;DHT22;57787;48.216;12.396;2023-06-19T02:17:02;16.30;71.20
70366;DHT22;57787;48.216;12.396;2023-06-19T02:19:30;16.30;71.10
70366;DHT22;57787;48.216;12.396;2023-06-19T02:21:57;16.30;71.00
70366;DHT22;57787;48.216;12.396;2023-06-19T02:24:24;16.40;71.30
70366;DHT22;57787;48.216;12.396;2023-06-19T02:26:51;16.40;70.90
70366;DHT22;57787;48.216;12.396;2023-06-19T02:29:18;16.40;71.30
70366;DHT22;57787;48.216;12.396;2023-06-19T02:31:45;16.40;71.10
70366;DHT22;57787;48.216;12.396;2023-06-19T02:34:12;16.50;71.00
70366;DHT22;57787;48.216;12.396;2023-06-19T02:36:42;16.50;70.60
70366;DHT22;57787;48.216;12.396;2023-06-19T02:39:09;16.50;72.00
70366;DHT22;57787;48.216;12.396;2023-06-19T02:41:36;16.60;71.40
70366;DHT22;57787;48.216;12.396;2023-06-19T02:44:04;16.60;71.70
70366;DHT22;57787;48.216;12.396;2023-06-19T02:46:31;16.60;71.30
70366;DHT22;57787;48.216;12.396;2023-06-19T02:49:02;16.60;71.60
70366;DHT22;57787;48.216;12.396;2023-06-19T02:51:29;16.60;71.00
70366;DHT22;57787;48.216;12.396;2023-06-19T02:53:55;16.60;71.40
70366;DHT22;57787;48.216;12.396;2023-06-19T02:56:22;16.60;71.80
70366;DHT22;57787;48.216;12.396;2023-06-19T02:58:49;16.60;72.30
70366;DHT22;57787;48.216;12.396;2023-06-19T03:01:18;16.60;71.70
70366;DHT22;57787;48.216;12.396;2023-06-19T03:03:45;16.60;71.60
70366;DHT22;57787;48.216;12.396;2023-06-19T03:06:15;16.70;71.60
70366;DHT22;57787;48.216;12.396;2023-06-19T03:08:44;16.70;70.90
70366;DHT22;57787;48.216;12.396;2023-06-19T03:11:13;16.70;70.00
70366;DHT22;57787;48.216;12.396;2023-06-19T03:13:52;16.70;71.00
70366;DHT22;57787;48.216;12.396;2023-06-19T03:16:19;16.70;71.20
70366;DHT22;57787;48.216;12.396;2023-06-19T03:18:46;16.80;70.90
70366;DHT22;57787;48.216;12.396;2023-06-19T03:21:18;16.70;72.10
70366;DHT22;57787;48.216;12.396;2023-06-19T03:23:46;16.70;72.10
70366;DHT22;57787;48.216;12.396;2023-06-19T03:26:13;16.70;72.00
70366;DHT22;57787;48.216;12.396;2023-06-19T03:28:41;16.80;71.80
70366;DHT22;57787;48.216;12.396;2023-06-19T03:31:07;16.70;72.30
70366;DHT22;57787;48.216;12.396;2023-06-19T03:33:34;16.80;72.30
70366;DHT22;57787;48.216;12.396;2023-06-19T03:36:02;16.80;72.50
70366;DHT22;57787;48.216;12.396;2023-06-19T03:38:29;16.80;72.10
70366;DHT22;57787;48.216;12.396;2023-06-19T03:40:57;16.80;71.90
70366;DHT22;57787;48.216;12.396;2023-06-19T03:43:24;16.80;71.30
70366;DHT22;57787;48.216;12.396;2023-06-19T03:45:51;16.80;71.00
70366;DHT22;57787;48.216;12.396;2023-06-19T03:48:18;16.90;70.70
70366;DHT22;57787;48.216;12.396;2023-06-19T03:50:46;17.00;70.80
70366;DHT22;57787;48.216;12.396;2023-06-19T03:53:13;17.00;70.40
70366;DHT22;57787;48.216;12.396;2023-06-19T03:55:39;17.00;70.30
70366;DHT22;57787;48.216;12.396;2023-06-19T03:58:06;17.10;70.90
70366;DHT22;57787;48.216;12.396;2023-06-19T04:00:33;17.10;69.50
70366;DHT22;57787;48.216;12.396;2023-06-19T04:03:00;17.20;69.00
70366;DHT22;57787;48.216;12.396;2023-06-19T04:05:27;17.20;69.00
70366;DHT22;57787;48.216;12.396;2023-06-19T04:07:54;17.20;69.10
70366;DHT22;57787;48.216;12.396;2023-06-19T04:10:21;17.30;68.50
70366;DHT22;57787;48.216;12.396;2023-06-19T04:12:48;17.30;69.50
70366;DHT22;57787;48.216;12.396;2023-06-19T04:15:15;17.40;70.00
70366;DHT22;57787;48.216;12.396;2023-06-19T04:17:44;17.40;69.30
70366;DHT22;57787;48.216;12.396;2023-06-19T04:20:11;17.40;69.90
70366;DHT22;57787;48.216;12.396;2023-06-19T04:22:39;17.50;70.10
70366;DHT22;57787;48.216;12.396;2023-06-19T04:25:07;17.50;69.80
70366;DHT22;57787;48.216;12.396;2023-06-19T04:27:34;17.60;70.40
70366;DHT22;57787;48.216;12.396;2023-06-19T04:30:04;17.50;71.40
70366;DHT22;57787;48.216;12.396;2023-06-19T04:32:37;17.60;70.40
70366;DHT22;57787;48.216;12.396;2023-06-19T04:35:09;17.60;70.20
70366;DHT22;57787;48.216;12.396;2023-06-19T04:37:38;17.70;70.20
70366;DHT22;57787;48.216;12.396;2023-06-19T04:40:06;17.70;70.50
70366;DHT22;57787;48.216;12.396;2023-06-19T04:42:38;17.70;71.90
70366;DHT22;57787;48.216;12.396;2023-06-19T04:45:06;17.70;70.80
70366;DHT22;57787;48.216;12.396;2023-06-19T04:47:34;17.70;72.00
70366;DHT22;57787;48.216;12.396;2023-06-19T04:50:18;17.80;71.70
70366;DHT22;57787;48.216;12.396;2023-06-19T04:52:47;17.80;70.80
70366;DHT22;57787;48.216;12.396;2023-06-19T04:55:17;17.90;70.50
70366;DHT22;57787;48.216;12.396;2023-06-19T04:57:48;17.90;70.30
70366;DHT22;57787;48.216;12.396;2023-06-19T05:00:15;17.90;71.50
70366;DHT22;57787;48.216;12.396;2023-06-19T05:02:47;17.90;70.30
70366;DHT22;57787;48.216;12.396;2023-06-19T05:05:16;17.90;70.90
70366;DHT22;57787;48.216;12.396;2023-06-19T05:07:46;17.90;71.20
70366;DHT22;57787;48.216;12.396;2023-06-19T05:10:15;18.00;71.10
70366;DHT22;57787;48.216;12.396;2023-06-19T05:12:42;18.00;70.20
70366;DHT22;57787;48.216;12.396;2023-06-19T05:15:12;18.00;70.90
70366;DHT22;57787;48.216;12.396;2023-06-19T05:17:39;18.10;70.90
70366;DHT22;57787;48.216;12.396;2023-06-19T05:20:08;18.10;70.00
70366;DHT22;57787;48.216;12.396;2023-06-19T05:22:35;18.10;72.10
70366;DHT22;57787;48.216;12.396;2023-06-19T05:25:03;18.10;71.50
70366;DHT22;57787;48.216;12.396;2023-06-19T05:27:30;18.10;69.70
70366;DHT22;57787;48.216;12.396;2023-06-19T05:29:58;18.20;70.80
70366;DHT22;57787;48.216;12.396;2023-06-19T05:32:25;18.20;72.00
70366;DHT22;57787;48.216;12.396;2023-06-19T05:34:52;18.30;71.20
70366;DHT22;57787;48.216;12.396;2023-06-19T05:37:24;18.30;72.50
70366;DHT22;57787;48.216;12.396;2023-06-19T05:39:51;18.20;71.60
70366;DHT22;57787;48.216;12.396;2023-06-19T05:42:18;18.30;71.80
70366;DHT22;57787;48.216;12.396;2023-06-19T05:44:46;18.30;70.70
70366;DHT22;57787;48.216;12.396;2023-06-19T05:47:13;18.30;70.10
70366;DHT22;57787;48.216;12.396;2023-06-19T05:49:43;18.30;70.00
70366;DHT22;57787;48.216;12.396;2023-06-19T05:52:10;18.40;69.40
70366;DHT22;57787;48.216;12.396;2023-06-19T05:54:38;18.40;70.10
70366;DHT22;57787;48.216;12.396;2023-06-19T05:57:05;18.50;70.00
70366;DHT22;57787;48.216;12.396;2023-06-19T05:59:35;18.50;69.80
70366;DHT22;57787;48.216;12.396;2023-06-19T06:02:02;18.50;70.40
70366;DHT22;57787;48.216;12.396;2023-06-19T06:04:30;18.60;69.80
70366;DHT22;57787;48.216;12.396;2023-06-19T06:06:58;18.60;69.00
70366;DHT22;57787;48.216;12.396;2023-06-19T06:09:24;18.70;69.20
70366;DHT22;57787;48.216;12.396;2023-06-19T06:11:52;18.70;68.60
70366;DHT22;57787;48.216;12.396;2023-06-19T06:14:20;18.70;68.90
70366;DHT22;57787;48.216;12.396;2023-06-19T06:16:47;18.70;67.90
70366;DHT22;57787;48.216;12.396;2023-06-19T06:19:14;18.80;68.30
70366;DHT22;57787;48.216;12.396;2023-06-19T06:21:41;18.80;68.00
70366;DHT22;57787;48.216;12.396;2023-06-19T06:24:08;18.80;67.80
70366;DHT22;57787;48.216;12.396;2023-06-19T06:26:35;18.80;67.90
70366;DHT22;57787;48.216;12.396;2023-06-19T06:29:05;18.80;67.40
70366;DHT22;57787;48.216;12.396;2023-06-19T06:31:31;18.90;67.60
70366;DHT22;57787;48.216;12.396;2023-06-19T06:33:58;18.90;67.10
70366;DHT22;57787;48.216;12.396;2023-06-19T06:36:26;19.00;67.00
70366;DHT22;57787;48.216;12.396;2023-06-19T06:39:02;19.00;67.60
70366;DHT22;57787;48.216;12.396;2023-06-19T06:41:29;19.10;67.10
70366;DHT22;57787;48.216;12.396;2023-06-19T06:43:56;19.20;66.70
70366;DHT22;57787;48.216;12.396;2023-06-19T06:46:22;19.30;66.90
70366;DHT22;57787;48.216;12.396;2023-06-19T06:48:49;19.40;67.10
70366;DHT22;57787;48.216;12.396;2023-06-19T06:51:19;19.50;66.50
70366;DHT22;57787;48.216;12.396;2023-06-19T06:53:46;19.60;66.00
70366;DHT22;57787;48.216;12.396;2023-06-19T06:56:13;19.80;65.40
70366;DHT22;57787;48.216;12.396;2023-06-19T06:58:40;19.80;65.20
70366;DHT22;57787;48.216;12.396;2023-06-19T07:01:06;20.00;65.00
70366;DHT22;57787;48.216;12.396;2023-06-19T07:03:34;20.10;65.40
70366;DHT22;57787;48.216;12.396;2023-06-19T07:06:01;20.10;63.90
70366;DHT22;57787;48.216;12.396;2023-06-19T07:08:29;20.30;64.00
70366;DHT22;57787;48.216;12.396;2023-06-19T07:10:58;20.30;63.90
70366;DHT22;57787;48.216;12.396;2023-06-19T07:13:27;20.40;63.50
70366;DHT22;57787;48.216;12.396;2023-06-19T07:15:54;20.50;63.50
70366;DHT22;57787;48.216;12.396;2023-06-19T07:18:24;20.60;63.30
70366;DHT22;57787;48.216;12.396;2023-06-19T07:20:51;20.80;63.40
70366;DHT22;57787;48.216;12.396;2023-06-19T07:23:18;20.90;63.30
70366;DHT22;57787;48.216;12.396;2023-06-19T07:25:47;21.00;63.30
70366;DHT22;57787;48.216;12.396;2023-06-19T07:28:14;21.10;63.10
70366;DHT22;57787;48.216;12.396;2023-06-19T07:30:41;21.10;63.10
70366;DHT22;57787;48.216;12.396;2023-06-19T07:33:08;21.20;62.90
70366;DHT22;57787;48.216;12.396;2023-06-19T07:35:37;21.20;62.60
70366;DHT22;57787;48.216;12.396;2023-06-19T07:38:04;21.30;61.80
70366;DHT22;57787;48.216;12.396;2023-06-19T07:40:31;21.30;61.90
70366;DHT22;57787;48.216;12.396;2023-06-19T07:42:58;21.30;61.80
70366;DHT22;57787;48.216;12.396;2023-06-19T07:45:25;21.30;60.90
70366;DHT22;57787;48.216;12.396;2023-06-19T07:47:55;21.30;61.30
70366;DHT22;57787;48.216;12.396;2023-06-19T07:50:22;21.40;62.00
70366;DHT22;57787;48.216;12.396;2023-06-19T07:52:53;21.40;62.00
70366;DHT22;57787;48.216;12.396;2023-06-19T07:55:20;21.40;62.00
70366;DHT22;57787;48.216;12.396;2023-06-19T07:57:47;21.50;62.60
70366;DHT22;57787;48.216;12.396;2023-06-19T08:00:15;21.50;62.60
70366;DHT22;57787;48.216;12.396;2023-06-19T08:02:46;21.60;62.30
70366;DHT22;57787;48.216;12.396;2023-06-19T08:05:15;21.70;63.20
70366;DHT22;57787;48.216;12.396;2023-06-19T08:07:42;21.70;63.80
70366;DHT22;57787;48.216;12.396;2023-06-19T08:10:09;21.80;63.70
70366;DHT22;57787;48.216;12.396;2023-06-19T08:12:41;21.80;63.80
70366;DHT22;57787;48.216;12.396;2023-06-19T08:15:08;21.90;63.90
70366;DHT22;57787;48.216;12.396;2023-06-19T08:17:37;21.90;64.10
70366;DHT22;57787;48.216;12.396;2023-06-19T08:20:04;22.00;63.40
70366;DHT22;57787;48.216;12.396;2023-06-19T08:22:31;22.10;62.60
70366;DHT22;57787;48.216;12.396;2023-06-19T08:25:01;22.10;63.20
70366;DHT22;57787;48.216;12.396;2023-06-19T08:27:28;22.20;62.80
70366;DHT22;57787;48.216;12.396;2023-06-19T08:29:54;22.30;62.30
70366;DHT22;57787;48.216;12.396;2023-06-19T08:32:21;22.40;62.60
70366;DHT22;57787;48.216;12.396;2023-06-19T08:34:48;22.60;61.90
70366;DHT22;57787;48.216;12.396;2023-06-19T08:37:16;22.80;61.70
70366;DHT22;57787;48.216;12.396;2023-06-19T08:39:45;23.00;61.40
70366;DHT22;57787;48.216;12.396;2023-06-19T08:42:14;23.30;60.90
70366;DHT22;57787;48.216;12.396;2023-06-19T08:44:41;23.50;60.40
70366;DHT22;57787;48.216;12.396;2023-06-19T08:47:09;23.80;59.60
70366;DHT22;57787;48.216;12.396;2023-06-19T08:49:36;24.10;58.60
70366;DHT22;57787;48.216;12.396;2023-06-19T08:52:03;24.40;57.80
70366;DHT22;57787;48.216;12.396;2023-06-19T08:54:31;24.70;57.30
70366;DHT22;57787;48.216;12.396;2023-06-19T08:57:02;24.90;56.90
70366;DHT22;57787;48.216;12.396;2023-06-19T08:59:32;25.10;57.00
70366;DHT22;57787;48.216;12.396;2023-06-19T09:02:00;25.20;55.70
70366;DHT22;57787;48.216;12.396;2023-06-19T09:04:27;25.40;54.50
70366;DHT22;57787;48.216;12.396;2023-06-19T09:07:07;25.50;55.00
70366;DHT22;57787;48.216;12.396;2023-06-19T09:09:36;25.90;54.30
70366;DHT22;57787;48.216;12.396;2023-06-19T09:12:03;26.30;53.30
70366;DHT22;57787;48.216;12.396;2023-06-19T09:14:41;26.30;52.40
70366;DHT22;57787;48.216;12.396;2023-06-19T09:17:12;26.30;52.60
70366;DHT22;57787;48.216;12.396;2023-06-19T09:19:51;26.60;52.50
70366;DHT22;57787;48.216;12.396;2023-06-19T09:22:29;27.00;52.70
70366;DHT22;57787;48.216;12.396;2023-06-19T09:25:02;27.30;51.50
70366;DHT22;57787;48.216;12.396;2023-06-19T09:27:32;27.70;50.70
70366;DHT22;57787;48.216;12.396;2023-06-19T09:30:00;28.00;50.30
70366;DHT22;57787;48.216;12.396;2023-06-19T09:32:29;28.30;48.30
70366;DHT22;57787;48.216;12.396;2023-06-19T09:34:57;28.50;47.70
70366;DHT22;57787;48.216;12.396;2023-06-19T09:37:30;28.80;47.80
70366;DHT22;57787;48.216;12.396;2023-06-19T09:40:01;28.90;47.60
70366;DHT22;57787;48.216;12.396;2023-06-19T09:42:38;29.00;48.10
70366;DHT22;57787;48.216;12.396;2023-06-19T09:45:05;29.30;48.70
70366;DHT22;57787;48.216;12.396;2023-06-19T09:47:35;29.60;47.30
70366;DHT22;57787;48.216;12.396;2023-06-19T09:50:06;29.60;45.60
70366;DHT22;57787;48.216;12.396;2023-06-19T09:52:33;29.80;44.80
70366;DHT22;57787;48.216;12.396;2023-06-19T09:55:01;30.00;44.30
70366;DHT22;57787;48.216;12.396;2023-06-19T09:57:33;30.30;43.70
70366;DHT22;57787;48.216;12.396;2023-06-19T10:00:00;30.40;41.70
70366;DHT22;57787;48.216;12.396;2023-06-19T10:02:36;30.50;41.50
70366;DHT22;57787;48.216;12.396;2023-06-19T10:05:05;30.40;41.80
70366;DHT22;57787;48.216;12.396;2023-06-19T10:07:35;30.50;41.00
70366;DHT22;57787;48.216;12.396;2023-06-19T10:10:04;30.50;40.60
70366;DHT22;57787;48.216;12.396;2023-06-19T10:12:34;30.30;42.10
70366;DHT22;57787;48.216;12.396;2023-06-19T10:18:00;30.60;42.80
70366;DHT22;57787;48.216;12.396;2023-06-19T10:20:32;30.80;41.60
70366;DHT22;57787;48.216;12.396;2023-06-19T10:23:15;31.00;41.50
70366;DHT22;57787;48.216;12.396;2023-06-19T10:25:47;31.10;41.10
70366;DHT22;57787;48.216;12.396;2023-06-19T10:28:21;31.20;38.00
70366;DHT22;57787;48.216;12.396;2023-06-19T10:30:52;31.20;39.60
70366;DHT22;57787;48.216;12.396;2023-06-19T10:33:29;31.40;39.30
70366;DHT22;57787;48.216;12.396;2023-06-19T10:35:57;31.70;39.70
70366;DHT22;57787;48.216;12.396;2023-06-19T10:38:24;31.90;42.10
70366;DHT22;57787;48.216;12.396;2023-06-19T10:40:52;32.00;39.70
70366;DHT22;57787;48.216;12.396;2023-06-19T10:43:19;32.20;38.00
70366;DHT22;57787;48.216;12.396;2023-06-19T10:45:46;32.40;37.80
70366;DHT22;57787;48.216;12.396;2023-06-19T10:48:17;32.70;40.00
70366;DHT22;57787;48.216;12.396;2023-06-19T10:50:44;33.00;39.20
70366;DHT22;57787;48.216;12.396;2023-06-19T10:53:11;33.30;37.40
70366;DHT22;57787;48.216;12.396;2023-06-19T10:55:38;33.30;36.20
70366;DHT22;57787;48.216;12.396;2023-06-19T10:58:05;33.40;37.30
70366;DHT22;57787;48.216;12.396;2023-06-19T11:00:33;33.40;36.10
70366;DHT22;57787;48.216;12.396;2023-06-19T11:03:00;33.40;35.70
70366;DHT22;57787;48.216;12.396;2023-06-19T11:05:27;33.30;35.80
70366;DHT22;57787;48.216;12.396;2023-06-19T11:07:55;33.40;35.40
70366;DHT22;57787;48.216;12.396;2023-06-19T11:10:23;33.40;34.90
70366;DHT22;57787;48.216;12.396;2023-06-19T11:12:54;33.30;36.20
70366;DHT22;57787;48.216;12.396;2023-06-19T11:15:33;33.20;35.80
70366;DHT22;57787;48.216;12.396;2023-06-19T11:18:01;33.20;34.80
70366;DHT22;57787;48.216;12.396;2023-06-19T11:20:28;33.20;36.10
70366;DHT22;57787;48.216;12.396;2023-06-19T11:22:56;33.20;35.40
70366;DHT22;57787;48.216;12.396;2023-06-19T11:25:23;33.00;35.60
70366;DHT22;57787;48.216;12.396;2023-06-19T11:27:50;32.90;35.00
70366;DHT22;57787;48.216;12.396;2023-06-19T11:30:18;32.90;35.30
70366;DHT22;57787;48.216;12.396;2023-06-19T11:32:47;32.80;33.90
70366;DHT22;57787;48.216;12.396;2023-06-19T11:35:15;32.70;35.10
70366;DHT22;57787;48.216;12.396;2023-06-19T11:37:43;32.70;35.50
70366;DHT22;57787;48.216;12.396;2023-06-19T11:42:53;32.70;35.70
70366;DHT22;57787;48.216;12.396;2023-06-19T11:45:22;32.70;37.00
70366;DHT22;57787;48.216;12.396;2023-06-19T11:47:49;32.60;35.80
70366;DHT22;57787;48.216;12.396;2023-06-19T11:50:25;32.50;33.70
70366;DHT22;57787;48.216;12.396;2023-06-19T11:52:53;32.30;35.10
70366;DHT22;57787;48.216;12.396;2023-06-19T11:55:20;32.30;34.70
70366;DHT22;57787;48.216;12.396;2023-06-19T11:57:47;32.30;35.00
70366;DHT22;57787;48.216;12.396;2023-06-19T12:00:14;32.20;34.70
70366;DHT22;57787;48.216;12.396;2023-06-19T12:02:43;32.30;34.40
70366;DHT22;57787;48.216;12.396;2023-06-19T12:05:10;32.20;34.40
70366;DHT22;57787;48.216;12.396;2023-06-19T12:07:37;32.10;35.90
70366;DHT22;57787;48.216;12.396;2023-06-19T12:10:04;32.20;35.10
70366;DHT22;57787;48.216;12.396;2023-06-19T12:12:36;32.20;37.00
70366;DHT22;57787;48.216;12.396;2023-06-19T12:15:04;32.30;36.10
70366;DHT22;57787;48.216;12.396;2023-06-19T12:17:31;32.30;35.00
70366;DHT22;57787;48.216;12.396;2023-06-19T12:20:01;32.20;35.00
70366;DHT22;57787;48.216;12.396;2023-06-19T12:22:34;32.30;35.80
70366;DHT22;57787;48.216;12.396;2023-06-19T12:25:02;32.30;37.00
70366;DHT22;57787;48.216;12.396;2023-06-19T12:27:30;32.20;34.50
70366;DHT22;57787;48.216;12.396;2023-06-19T12:29:58;32.20;35.10
70366;DHT22;57787;48.216;12.396;2023-06-19T12:32:25;32.30;33.70
70366;DHT22;57787;48.216;12.396;2023-06-19T12:34:52;32.40;35.20
70366;DHT22;57787;48.216;12.396;2023-06-19T12:37:20;32.40;34.10
70366;DHT22;57787;48.216;12.396;2023-06-19T12:39:49;32.50;35.90
70366;DHT22;57787;48.216;12.396;2023-06-19T12:42:16;32.40;34.40
70366;DHT22;57787;48.216;12.396;2023-06-19T12:44:43;32.50;34.90
70366;DHT22;57787;48.216;12.396;2023-06-19T12:47:12;32.50;33.70
70366;DHT22;57787;48.216;12.396;2023-06-19T12:49:38;32.60;35.50
70366;DHT22;57787;48.216;12.396;2023-06-19T12:54:42;32.70;35.90
70366;DHT22;57787;48.216;12.396;2023-06-19T13:07:49;32.60;34.10
70366;DHT22;57787;48.216;12.396;2023-06-19T13:10:17;32.30;35.70
70366;DHT22;57787;48.216;12.396;2023-06-19T13:12:44;32.30;34.20
70366;DHT22;57787;48.216;12.396;2023-06-19T13:15:13;32.30;35.40
70366;DHT22;57787;48.216;12.396;2023-06-19T13:17:45;32.20;34.60
70366;DHT22;57787;48.216;12.396;2023-06-19T13:20:18;32.10;34.80
70366;DHT22;57787;48.216;12.396;2023-06-19T13:22:48;32.10;35.60
70366;DHT22;57787;48.216;12.396;2023-06-19T13:27:58;32.20;38.00
70366;DHT22;57787;48.216;12.396;2023-06-19T13:30:25;32.10;36.10
70366;DHT22;57787;48.216;12.396;2023-06-19T13:32:56;32.10;36.80
70366;DHT22;57787;48.216;12.396;2023-06-19T13:35:23;32.10;35.40
70366;DHT22;57787;48.216;12.396;2023-06-19T13:37:50;32.10;36.20
70366;DHT22;57787;48.216;12.396;2023-06-19T13:40:17;32.30;38.20
70366;DHT22;57787;48.216;12.396;2023-06-19T13:42:44;32.20;35.90
70366;DHT22;57787;48.216;12.396;2023-06-19T13:58:19;32.30;35.10
70366;DHT22;57787;48.216;12.396;2023-06-19T14:06:11;32.10;34.80
70366;DHT22;57787;48.216;12.396;2023-06-19T14:11:20;32.10;35.80
70366;DHT22;57787;48.216;12.396;2023-06-19T14:13:48;32.00;35.90
70366;DHT22;57787;48.216;12.396;2023-06-19T14:16:15;32.00;35.60
70366;DHT22;57787;48.216;12.396;2023-06-19T14:21:24;31.90;36.10
70366;DHT22;57787;48.216;12.396;2023-06-19T14:39:57;32.20;36.40
70366;DHT22;57787;48.216;12.396;2023-06-19T14:42:25;32.20;36.70
70366;DHT22;57787;48.216;12.396;2023-06-19T14:47:32;32.10;34.60
70366;DHT22;57787;48.216;12.396;2023-06-19T14:50:00;32.10;36.00
70366;DHT22;57787;48.216;12.396;2023-06-19T14:52:29;32.00;35.60
70366;DHT22;57787;48.216;12.396;2023-06-19T14:54:58;32.00;35.70
70366;DHT22;57787;48.216;12.396;2023-06-19T14:57:25;32.00;35.60
70366;DHT22;57787;48.216;12.396;2023-06-19T14:59:53;32.00;35.40
70366;DHT22;57787;48.216;12.396;2023-06-19T15:02:20;32.00;34.20
70366;DHT22;57787;48.216;12.396;2023-06-19T15:04:46;31.90;34.60
70366;DHT22;57787;48.216;12.396;2023-06-19T15:07:30;31.90;35.30
70366;DHT22;57787;48.216;12.396;2023-06-19T15:09:59;31.90;35.30
70366;DHT22;57787;48.216;12.396;2023-06-19T15:12:26;31.90;36.50
70366;DHT22;57787;48.216;12.396;2023-06-19T15:14:53;31.80;36.00
70366;DHT22;57787;48.216;12.396;2023-06-19T15:17:20;31.80;35.70
70366;DHT22;57787;48.216;12.396;2023-06-19T15:19:50;31.80;35.30
70366;DHT22;57787;48.216;12.396;2023-06-19T15:22:17;31.60;36.00
70366;DHT22;57787;48.216;12.396;2023-06-19T15:24:44;31.50;36.30
70366;DHT22;57787;48.216;12.396;2023-06-19T15:27:11;31.50;36.40
70366;DHT22;57787;48.216;12.396;2023-06-19T15:29:39;31.40;36.40
70366;DHT22;57787;48.216;12.396;2023-06-19T15:32:06;31.40;36.80
70366;DHT22;57787;48.216;12.396;2023-06-19T15:34:45;31.40;35.90
70366;DHT22;57787;48.216;12.396;2023-06-19T15:37:12;31.30;36.90
70366;DHT22;57787;48.216;12.396;2023-06-19T15:39:38;31.10;37.00
70366;DHT22;57787;48.216;12.396;2023-06-19T15:42:05;31.10;37.20
70366;DHT22;57787;48.216;12.396;2023-06-19T15:44:33;31.10;37.50
70366;DHT22;57787;48.216;12.396;2023-06-19T15:47:00;31.20;38.60
70366;DHT22;57787;48.216;12.396;2023-06-19T15:49:27;31.10;36.90
70366;DHT22;57787;48.216;12.396;2023-06-19T15:51:54;31.20;37.20
70366;DHT22;57787;48.216;12.396;2023-06-19T15:54:23;31.00;36.60
70366;DHT22;57787;48.216;12.396;2023-06-19T15:56:50;30.90;36.20
70366;DHT22;57787;48.216;12.396;2023-06-19T15:59:17;30.90;36.80
70366;DHT22;57787;48.216;12.396;2023-06-19T16:01:44;30.80;37.20
70366;DHT22;57787;48.216;12.396;2023-06-19T16:04:11;30.70;37.80
70366;DHT22;57787;48.216;12.396;2023-06-19T16:06:38;30.70;38.00
70366;DHT22;57787;48.216;12.396;2023-06-19T16:09:07;30.70;38.20
70366;DHT22;57787;48.216;12.396;2023-06-19T16:11:34;30.50;37.70
70366;DHT22;57787;48.216;12.396;2023-06-19T16:14:01;30.50;38.00
70366;DHT22;57787;48.216;12.396;2023-06-19T16:16:28;30.50;39.10
70366;DHT22;57787;48.216;12.396;2023-06-19T16:18:55;30.50;39.00
70366;DHT22;57787;48.216;12.396;2023-06-19T16:21:22;30.60;38.70
70366;DHT22;57787;48.216;12.396;2023-06-19T16:23:50;30.50;38.00
70366;DHT22;57787;48.216;12.396;2023-06-19T16:26:18;30.60;38.30
70366;DHT22;57787;48.216;12.396;2023-06-19T16:28:44;30.60;38.20